Time;durP1;ratioP1;P1;durP2;ratioP2;P2;SDS_P1;SDS_P2;PMS_P1;PMS_P2;Temp;Humidity;BMP_temperature;BMP_pressure;BME280_temperature;BME280_humidity;BME280_pressure;Samples;Min_cycle;Max_cycle;Signal;HPM_P1;HPM_P2
2024/02/25 00:00:59;;;;;;;4.50;2.00;;;;;;;;;;5053830;28;20036;-56
2024/02/25 00:03:25;;;;;;;6.80;2.53;;;;;;;;;;5054553;28;20274;-59
2024/02/25 00:05:50;;;;;;;3.13;1.77;;;;;;;;;;5054544;28;20051;-60
2024/02/25 00:08:15;;;;;;;6.47;1.90;;;;;;;;;;5054722;28;20026;-57
2024/02/25 00:10:41;;;;;;;4.78;1.90;;;;;;;;;;5060057;28;20626;-59
2024/02/25 00:13:07;;;;;;;7.47;1.87;;;;;;;;;;5058808;28;20102;-59
2024/02/25 00:15:32;;;;;;;5.97;2.00;;;;;;;;;;5056670;28;20331;-58
2024/02/25 00:17:58;;;;;;;6.60;1.90;;;;;;;;;;5056842;28;20025;-59
2024/02/25 00:20:23;;;;;;;8.23;2.70;;;;;;;;;;5051824;28;20100;-57
2024/02/25 00:22:48;;;;;;;7.77;1.70;;;;;;;;;;5051339;28;20037;-56
2024/02/25 00:25:14;;;;;;;2.80;1.50;;;;;;;;;;5052109;28;20047;-61
2024/02/25 00:27:39;;;;;;;5.23;1.67;;;;;;;;;;5052871;28;20022;-59
2024/02/25 00:30:04;;;;;;;3.07;1.70;;;;;;;;;;5054737;28;20079;-58
2024/02/25 00:32:30;;;;;;;2.22;1.35;;;;;;;;;;5053589;28;20026;-56
2024/02/25 00:34:55;;;;;;;4.50;1.87;;;;;;;;;;5053507;28;20045;-60
2024/02/25 00:37:21;;;;;;;6.30;1.92;;;;;;;;;;5059257;28;20053;-59
2024/02/25 00:39:47;;;;;;;5.57;1.60;;;;;;;;;;5055215;28;20034;-60
2024/02/25 00:42:12;;;;;;;3.23;1.27;;;;;;;;;;5041741;28;20037;-59
2024/02/25 00:44:39;;;;;;;2.45;1.40;;;;;;;;;;5056876;28;20021;-59
2024/02/25 00:47:05;;;;;;;2.17;1.20;;;;;;;;;;5060964;28;20040;-58
2024/02/25 00:49:31;;;;;;;3.60;1.57;;;;;;;;;;5053120;28;20049;-58
2024/02/25 00:51:56;;;;;;;2.10;0.93;;;;;;;;;;5053614;28;20034;-59
2024/02/25 00:54:21;;;;;;;4.13;1.20;;;;;;;;;;5059770;28;20215;-59
2024/02/25 00:56:48;;;;;;;3.20;1.27;;;;;;;;;;5061065;28;20036;-58
2024/02/25 00:59:14;;;;;;;3.17;1.48;;;;;;;;;;5052175;28;20036;-59
2024/02/25 01:01:40;;;;;;;3.40;1.40;;;;;;;;;;5048432;28;20033;-58
2024/02/25 01:04:05;;;;;;;2.93;1.70;;;;;;;;;;5050182;28;20037;-57
2024/02/25 01:06:31;;;;;;;4.10;1.30;;;;;;;;;;5050056;28;20049;-56
2024/02/25 01:08:56;;;;;;;3.97;1.67;;;;;;;;;;5044750;28;20052;-58
2024/02/25 01:11:21;;;;;;;3.43;1.40;;;;;;;;;;5042830;28;20022;-58
2024/02/25 01:13:47;;;;;;;2.47;1.33;;;;;;;;;;5042673;28;20128;-59
2024/02/25 01:16:12;;;;;;;3.93;1.40;;;;;;;;;;5042964;28;20282;-58
2024/02/25 01:18:38;;;;;;;2.83;1.60;;;;;;;;;;5042332;28;20033;-58
2024/02/25 01:21:03;;;;;;;1.83;1.43;;;;;;;;;;5042852;28;20290;-56
2024/02/25 01:23:29;;;;;;;5.07;1.93;;;;;;;;;;5043322;28;20331;-59
2024/02/25 01:25:54;;;;;;;2.10;1.30;;;;;;;;;;5046197;28;20033;-61
2024/02/25 01:28:19;;;;;;;2.67;1.47;;;;;;;;;;5054664;28;20112;-60
2024/02/25 01:30:47;;;;;;;1.92;1.23;;;;;;;;;;5059552;28;20025;-57
2024/02/25 01:33:12;;;;;;;3.88;1.27;;;;;;;;;;5063839;28;20052;-56
2024/02/25 01:35:38;;;;;;;3.27;1.20;;;;;;;;;;5056590;28;20025;-59
2024/02/25 01:38:03;;;;;;;4.35;1.58;;;;;;;;;;5056868;28;20037;-57
2024/02/25 01:40:29;;;;;;;2.70;1.50;;;;;;;;;;5055666;28;20056;-59
2024/02/25 01:43:09;;;;;;;2.97;1.50;;;;;;;;;;5063342;28;20289;-57
2024/02/25 01:45:35;;;;;;;1.77;1.35;;;;;;;;;;5052933;28;20024;-57
2024/02/25 01:48:01;;;;;;;3.72;1.45;;;;;;;;;;5055184;28;20025;-58
2024/02/25 01:50:27;;;;;;;3.28;1.52;;;;;;;;;;5050137;28;20032;-59
2024/02/25 01:52:54;;;;;;;7.22;3.30;;;;;;;;;;5054165;28;20075;-58
2024/02/25 01:55:21;;;;;;;2.95;1.42;;;;;;;;;;5062027;28;20387;-58
2024/02/25 01:57:46;;;;;;;2.35;1.65;;;;;;;;;;5059491;28;20032;-59
2024/02/25 02:00:12;;;;;;;5.27;1.87;;;;;;;;;;5056121;28;20037;-58
2024/02/25 02:02:37;;;;;;;2.33;1.30;;;;;;;;;;5055495;28;20033;-58
2024/02/25 02:05:04;;;;;;;3.42;1.95;;;;;;;;;;5058419;28;20044;-59
2024/02/25 02:07:29;;;;;;;2.37;1.50;;;;;;;;;;5060875;28;20040;-60
2024/02/25 02:09:54;;;;;;;3.87;1.60;;;;;;;;;;5055328;28;20057;-57
2024/02/25 02:12:20;;;;;;;3.47;1.30;;;;;;;;;;5053657;28;20060;-58
2024/02/25 02:14:45;;;;;;;2.47;1.70;;;;;;;;;;5052889;28;20049;-58
2024/02/25 02:17:11;;;;;;;2.43;1.70;;;;;;;;;;5056525;28;20037;-59
2024/02/25 02:19:36;;;;;;;2.47;1.60;;;;;;;;;;5052961;28;20032;-59
2024/02/25 02:22:01;;;;;;;2.77;1.73;;;;;;;;;;5052778;28;20025;-60
2024/02/25 02:24:27;;;;;;;3.00;1.52;;;;;;;;;;5051558;28;20033;-59
2024/02/25 02:26:52;;;;;;;2.83;1.73;;;;;;;;;;5058528;28;20033;-56
2024/02/25 02:29:18;;;;;;;2.33;1.45;;;;;;;;;;5058842;28;20048;-58
2024/02/25 02:31:43;;;;;;;3.23;1.93;;;;;;;;;;5056323;28;20036;-57
2024/02/25 02:34:09;;;;;;;1.80;1.40;;;;;;;;;;5056928;28;20335;-59
2024/02/25 02:36:34;;;;;;;2.78;1.83;;;;;;;;;;5055179;28;20033;-59
2024/02/25 02:38:59;;;;;;;3.57;1.90;;;;;;;;;;5056084;28;20037;-58
2024/02/25 02:41:25;;;;;;;4.10;1.75;;;;;;;;;;5057270;28;20044;-58
2024/02/25 02:43:51;;;;;;;4.80;1.70;;;;;;;;;;5055017;28;20101;-59
2024/02/25 02:46:16;;;;;;;2.37;1.70;;;;;;;;;;5068546;28;20079;-59
2024/02/25 02:48:42;;;;;;;2.97;1.90;;;;;;;;;;5049843;28;20281;-58
2024/02/25 02:51:10;;;;;;;2.73;1.87;;;;;;;;;;5055759;28;20100;-57
2024/02/25 02:53:36;;;;;;;3.95;1.90;;;;;;;;;;5065323;28;20278;-57
2024/02/25 02:56:01;;;;;;;3.17;2.13;;;;;;;;;;5062952;28;20055;-58
2024/02/25 02:58:27;;;;;;;5.60;1.88;;;;;;;;;;5056011;28;20026;-58
2024/02/25 03:00:53;;;;;;;3.00;1.75;;;;;;;;;;5055452;28;20025;-59
2024/02/25 03:03:18;;;;;;;2.43;1.60;;;;;;;;;;5055265;28;20029;-58
2024/02/25 03:05:43;;;;;;;4.17;2.17;;;;;;;;;;5059708;28;20028;-58
2024/02/25 03:08:09;;;;;;;1.77;1.57;;;;;;;;;;5043472;28;20037;-57
2024/02/25 03:10:36;;;;;;;3.30;1.90;;;;;;;;;;5053922;28;20334;-61
2024/02/25 03:13:01;;;;;;;3.67;1.95;;;;;;;;;;5055302;28;20097;-59
2024/02/25 03:15:27;;;;;;;2.40;1.90;;;;;;;;;;5057682;28;20035;-60
2024/02/25 03:17:53;;;;;;;2.85;2.38;;;;;;;;;;5054535;28;20037;-59
2024/02/25 03:20:19;;;;;;;4.73;2.10;;;;;;;;;;5055064;28;20037;-55
2024/02/25 03:22:45;;;;;;;3.38;1.88;;;;;;;;;;5061646;28;20286;-59
2024/02/25 03:25:11;;;;;;;2.53;2.00;;;;;;;;;;5061319;28;20057;-60
2024/02/25 03:27:36;;;;;;;;;;;;;;;;;;5055529;28;20052;-58
2024/02/25 03:30:06;;;;;;;5.90;1.97;;;;;;;;;;5052009;28;19913;-57
2024/02/25 03:32:31;;;;;;;3.58;2.00;;;;;;;;;;5054482;28;20043;-58
2024/02/25 03:34:57;;;;;;;5.47;2.20;;;;;;;;;;5056253;28;20021;-59
2024/02/25 03:37:23;;;;;;;6.60;3.03;;;;;;;;;;5053234;28;20038;-60
2024/02/25 03:39:48;;;;;;;4.83;2.63;;;;;;;;;;5053791;28;20290;-60
2024/02/25 03:42:13;;;;;;;5.23;2.87;;;;;;;;;;5055966;28;20254;-61
2024/02/25 03:44:42;;;;;;;6.73;2.53;;;;;;;;;;5054636;28;20037;-62
2024/02/25 03:47:08;;;;;;;4.30;2.63;;;;;;;;;;5052307;28;20025;-61
2024/02/25 03:49:33;;;;;;;6.80;2.77;;;;;;;;;;5055323;28;20096;-61
2024/02/25 03:51:58;;;;;;;5.60;3.17;;;;;;;;;;5053408;28;20044;-61
2024/02/25 03:54:24;;;;;;;4.97;3.25;;;;;;;;;;5055972;28;21082;-60
2024/02/25 03:56:49;;;;;;;5.33;3.53;;;;;;;;;;5054540;28;20033;-60
2024/02/25 03:59:15;;;;;;;9.18;3.50;;;;;;;;;;5058989;28;20028;-60
2024/02/25 04:01:41;;;;;;;5.87;3.40;;;;;;;;;;5062759;28;20041;-60
2024/02/25 04:04:06;;;;;;;6.40;4.00;;;;;;;;;;5054381;28;20038;-60
2024/02/25 04:06:31;;;;;;;6.00;3.73;;;;;;;;;;5057599;28;20025;-59
2024/02/25 04:08:56;;;;;;;5.20;3.50;;;;;;;;;;5054725;28;20030;-59
2024/02/25 04:11:22;;;;;;;7.23;3.70;;;;;;;;;;5054441;28;20030;-60
2024/02/25 04:13:48;;;;;;;8.50;3.60;;;;;;;;;;5054298;28;20289;-59
2024/02/25 04:16:14;;;;;;;8.15;3.53;;;;;;;;;;5057064;28;20262;-61
2024/02/25 04:18:39;;;;;;;8.53;4.00;;;;;;;;;;5061557;28;20052;-61
2024/02/25 04:21:05;;;;;;;4.93;3.23;;;;;;;;;;5062191;28;20266;-60
2024/02/25 04:23:30;;;;;;;7.15;4.15;;;;;;;;;;5058642;28;20575;-61
2024/02/25 04:25:56;;;;;;;6.03;4.00;;;;;;;;;;5059184;28;20057;-61
2024/02/25 04:28:21;;;;;;;7.87;3.90;;;;;;;;;;5061401;28;20293;-61
2024/02/25 04:30:47;;;;;;;7.17;4.10;;;;;;;;;;5062537;28;20039;-60
2024/02/25 04:33:12;;;;;;;7.37;4.23;;;;;;;;;;5054125;28;20262;-61
2024/02/25 04:35:40;;;;;;;6.57;3.70;;;;;;;;;;5054225;28;20029;-60
2024/02/25 04:38:06;;;;;;;6.85;3.97;;;;;;;;;;5061275;28;20101;-61
2024/02/25 04:40:32;;;;;;;7.30;4.03;;;;;;;;;;5054386;28;20052;-61
2024/02/25 04:42:59;;;;;;;8.23;3.33;;;;;;;;;;5057083;28;20029;-60
2024/02/25 04:45:24;;;;;;;9.57;4.03;;;;;;;;;;5064650;28;20040;-62
2024/02/25 04:47:50;;;;;;;6.57;4.03;;;;;;;;;;5060160;28;20029;-61
2024/02/25 04:50:15;;;;;;;7.35;4.47;;;;;;;;;;5056050;28;20123;-60
2024/02/25 04:52:41;;;;;;;6.83;4.30;;;;;;;;;;5054596;28;20049;-61
2024/02/25 04:55:06;;;;;;;6.90;3.93;;;;;;;;;;5056078;28;20052;-60
2024/02/25 04:57:32;;;;;;;6.90;4.10;;;;;;;;;;5058754;28;20274;-60
2024/02/25 04:59:57;;;;;;;8.88;4.00;;;;;;;;;;5061547;28;20033;-60
2024/02/25 05:02:24;;;;;;;8.97;4.27;;;;;;;;;;5057249;28;20057;-60
2024/02/25 05:04:49;;;;;;;8.07;4.25;;;;;;;;;;5056361;28;20029;-61
2024/02/25 05:07:15;;;;;;;8.10;4.50;;;;;;;;;;5054546;28;20039;-60
2024/02/25 05:09:41;;;;;;;8.80;4.38;;;;;;;;;;5054317;28;20026;-61
2024/02/25 05:12:06;;;;;;;7.17;4.47;;;;;;;;;;5055826;28;20109;-62
2024/02/25 05:14:32;;;;;;;10.88;4.88;;;;;;;;;;5062893;28;20032;-59
2024/02/25 05:16:57;;;;;;;9.13;5.30;;;;;;;;;;5068015;28;20037;-60
2024/02/25 05:19:23;;;;;;;7.93;5.17;;;;;;;;;;5057580;28;20267;-61
2024/02/25 05:21:48;;;;;;;5.18;3.47;;;;;;;;;;5057435;28;20052;-60
2024/02/25 05:24:14;;;;;;;9.53;5.20;;;;;;;;;;5059006;28;20117;-60
2024/02/25 05:26:40;;;;;;;8.70;4.80;;;;;;;;;;5066631;28;20347;-61
2024/02/25 05:29:05;;;;;;;10.32;5.10;;;;;;;;;;5070111;28;20029;-60
2024/02/25 05:31:31;;;;;;;8.35;5.22;;;;;;;;;;5057868;28;20039;-59
2024/02/25 05:33:57;;;;;;;9.37;5.57;;;;;;;;;;5057403;28;20032;-59
2024/02/25 05:36:23;;;;;;;9.23;5.67;;;;;;;;;;5057192;28;20289;-60
2024/02/25 05:38:49;;;;;;;12.07;5.63;;;;;;;;;;5057604;28;20037;-62
2024/02/25 05:41:15;;;;;;;10.38;5.55;;;;;;;;;;5059039;28;20034;-62
2024/02/25 05:43:40;;;;;;;11.50;6.23;;;;;;;;;;5056918;28;20149;-60
2024/02/25 05:46:06;;;;;;;11.20;6.40;;;;;;;;;;5057089;28;20266;-61
2024/02/25 05:48:32;;;;;;;11.93;6.97;;;;;;;;;;5067658;28;20085;-60
2024/02/25 05:50:58;;;;;;;13.07;7.03;;;;;;;;;;5058485;28;20036;-62
2024/02/25 05:53:24;;;;;;;10.82;6.20;;;;;;;;;;5055355;28;20033;-60
2024/02/25 05:55:49;;;;;;;11.00;6.53;;;;;;;;;;5056827;28;20053;-61
2024/02/25 05:58:15;;;;;;;11.65;6.68;;;;;;;;;;5056732;28;20088;-61
2024/02/25 06:00:42;;;;;;;14.93;6.77;;;;;;;;;;5053856;28;20045;-60
2024/02/25 06:03:07;;;;;;;11.27;6.20;;;;;;;;;;5054020;28;20302;-61
2024/02/25 06:05:33;;;;;;;10.98;6.55;;;;;;;;;;5053092;28;20033;-60
2024/02/25 06:07:59;;;;;;;11.73;6.63;;;;;;;;;;5059840;28;20037;-61
2024/02/25 06:10:24;;;;;;;;;;;;;;;;;;5053183;28;20032;-63
2024/02/25 06:12:50;;;;;;;9.73;5.50;;;;;;;;;;5057100;28;19905;-61
2024/02/25 06:15:16;;;;;;;9.88;5.82;;;;;;;;;;5057243;28;20036;-61
2024/02/25 06:17:42;;;;;;;12.18;6.72;;;;;;;;;;5056804;28;20046;-61
2024/02/25 06:20:09;;;;;;;10.33;6.00;;;;;;;;;;5053542;28;20037;-60
2024/02/25 06:22:36;;;;;;;10.25;5.60;;;;;;;;;;5053182;28;20118;-62
2024/02/25 06:25:05;;;;;;;10.90;6.15;;;;;;;;;;5054350;28;20044;-62
2024/02/25 06:27:37;;;;;;;12.82;6.25;;;;;;;;;;5054042;28;20018;-60
2024/02/25 06:30:04;;;;;;;11.77;6.63;;;;;;;;;;5058523;28;20029;-62
2024/02/25 06:32:30;;;;;;;13.23;7.70;;;;;;;;;;5063276;28;20045;-62
2024/02/25 06:34:57;;;;;;;12.15;6.93;;;;;;;;;;5055802;28;20072;-60
2024/02/25 06:37:22;;;;;;;12.82;7.32;;;;;;;;;;5067156;28;20018;-60
2024/02/25 06:39:48;;;;;;;11.40;6.83;;;;;;;;;;5055526;28;20041;-59
2024/02/25 06:42:14;;;;;;;15.05;7.38;;;;;;;;;;5056231;28;20054;-61
2024/02/25 06:44:44;;;;;;;13.05;7.50;;;;;;;;;;5055781;28;20065;-61
2024/02/25 06:47:09;;;;;;;15.07;8.07;;;;;;;;;;5055818;28;20029;-60
2024/02/25 06:49:35;;;;;;;14.43;7.67;;;;;;;;;;5055755;28;20032;-62
2024/02/25 06:52:03;;;;;;;15.43;8.53;;;;;;;;;;5058702;28;20030;-61
2024/02/25 06:54:30;;;;;;;17.25;7.57;;;;;;;;;;5055754;28;20030;-60
2024/02/25 06:56:56;;;;;;;16.83;8.23;;;;;;;;;;5057558;28;20037;-61
2024/02/25 06:59:21;;;;;;;13.50;7.50;;;;;;;;;;5066936;28;20052;-61
2024/02/25 07:01:47;;;;;;;12.77;7.90;;;;;;;;;;5053228;28;20066;-62
2024/02/25 07:04:12;;;;;;;14.17;7.53;;;;;;;;;;5057970;28;20069;-61
2024/02/25 07:06:38;;;;;;;15.40;7.97;;;;;;;;;;5057523;28;20258;-61
2024/02/25 07:09:03;;;;;;;13.87;8.03;;;;;;;;;;5057098;28;20035;-61
2024/02/25 07:11:29;;;;;;;14.05;8.10;;;;;;;;;;5056663;28;20033;-61
2024/02/25 07:13:54;;;;;;;14.47;8.03;;;;;;;;;;5053124;28;20040;-61
2024/02/25 07:16:20;;;;;;;15.70;8.45;;;;;;;;;;5052976;28;20087;-61
2024/02/25 07:18:45;;;;;;;13.17;7.33;;;;;;;;;;5054834;28;20045;-60
2024/02/25 07:21:11;;;;;;;15.07;8.37;;;;;;;;;;5054676;28;20079;-59
2024/02/25 07:23:41;;;;;;;15.30;8.47;;;;;;;;;;5055067;28;20278;-61
2024/02/25 07:26:10;;;;;;;14.80;9.30;;;;;;;;;;5051093;28;20262;-59
2024/02/25 07:28:37;;;;;;;15.88;8.25;;;;;;;;;;5054951;28;20089;-61
2024/02/25 07:31:03;;;;;;;14.65;7.70;;;;;;;;;;5065509;28;20017;-57
2024/02/25 07:33:29;;;;;;;14.83;8.13;;;;;;;;;;5060252;28;20064;-59
2024/02/25 07:35:54;;;;;;;15.23;8.10;;;;;;;;;;5055224;28;20274;-60
2024/02/25 07:38:20;;;;;;;16.52;8.40;;;;;;;;;;5066486;28;20033;-61
2024/02/25 07:40:46;;;;;;;15.83;7.93;;;;;;;;;;5054786;28;20049;-59
2024/02/25 07:43:11;;;;;;;14.63;8.93;;;;;;;;;;5062889;28;20414;-59
2024/02/25 07:45:37;;;;;;;19.92;9.55;;;;;;;;;;5055000;28;20056;-62
2024/02/25 07:48:03;;;;;;;17.50;9.87;;;;;;;;;;5062976;28;20095;-59
2024/02/25 07:50:29;;;;;;;16.35;8.90;;;;;;;;;;5055158;28;20021;-59
2024/02/25 07:52:55;;;;;;;15.82;8.88;;;;;;;;;;5054527;28;20049;-59
2024/02/25 07:55:20;;;;;;;16.70;9.47;;;;;;;;;;5053956;28;20040;-61
2024/02/25 07:57:46;;;;;;;16.67;8.70;;;;;;;;;;5059975;28;20024;-57
2024/02/25 08:00:12;;;;;;;16.47;8.60;;;;;;;;;;5060875;28;20037;-59
2024/02/25 08:02:37;;;;;;;18.52;10.40;;;;;;;;;;5059501;28;20052;-60
2024/02/25 08:05:05;;;;;;;17.47;8.90;;;;;;;;;;5054831;28;20053;-58
2024/02/25 08:07:31;;;;;;;14.57;8.02;;;;;;;;;;5057367;28;20281;-59
2024/02/25 08:09:56;;;;;;;15.13;8.63;;;;;;;;;;5054796;28;20034;-60
2024/02/25 08:12:21;;;;;;;15.70;8.50;;;;;;;;;;5054364;28;20313;-59
2024/02/25 08:14:47;;;;;;;15.50;7.73;;;;;;;;;;5062331;28;20045;-57
2024/02/25 08:17:12;;;;;;;11.83;7.47;;;;;;;;;;5052319;28;20275;-59
2024/02/25 08:19:39;;;;;;;12.23;7.25;;;;;;;;;;5055988;28;20461;-58
2024/02/25 08:22:04;;;;;;;18.15;7.72;;;;;;;;;;5052596;28;20033;-60
2024/02/25 08:24:30;;;;;;;16.97;8.13;;;;;;;;;;5061221;28;20029;-60
2024/02/25 08:26:56;;;;;;;13.88;7.88;;;;;;;;;;5055580;28;20060;-60
2024/02/25 08:29:21;;;;;;;15.50;8.50;;;;;;;;;;5055051;28;20096;-58
2024/02/25 08:31:49;;;;;;;14.52;8.07;;;;;;;;;;5057976;28;20473;-58
2024/02/25 08:34:14;;;;;;;15.30;8.40;;;;;;;;;;5052888;28;20100;-60
2024/02/25 08:36:39;;;;;;;19.37;8.37;;;;;;;;;;5057399;28;20275;-59
2024/02/25 08:39:05;;;;;;;17.00;7.97;;;;;;;;;;5054156;28;20045;-57
2024/02/25 08:41:31;;;;;;;15.55;8.18;;;;;;;;;;5056270;28;20021;-59
2024/02/25 08:43:57;;;;;;;12.88;7.90;;;;;;;;;;5052876;28;20033;-61
2024/02/25 08:46:22;;;;;;;18.57;8.17;;;;;;;;;;5052241;28;20053;-58
2024/02/25 08:48:48;;;;;;;14.55;7.47;;;;;;;;;;5055064;28;20045;-60
2024/02/25 08:51:14;;;;;;;12.18;7.35;;;;;;;;;;5053842;28;20030;-58
2024/02/25 08:53:40;;;;;;;14.93;7.93;;;;;;;;;;5053979;28;20036;-59
2024/02/25 08:56:06;;;;;;;16.05;7.75;;;;;;;;;;5053886;28;20351;-58
2024/02/25 08:58:31;;;;;;;15.93;7.00;;;;;;;;;;5055046;28;20041;-61
2024/02/25 09:00:57;;;;;;;12.05;6.63;;;;;;;;;;5050021;28;20037;-56
2024/02/25 09:03:22;;;;;;;14.47;6.93;;;;;;;;;;5046190;28;20037;-58
2024/02/25 09:05:48;;;;;;;10.43;6.32;;;;;;;;;;5043015;28;20040;-59
2024/02/25 09:08:13;;;;;;;11.82;6.68;;;;;;;;;;5053239;28;20025;-58
2024/02/25 09:10:39;;;;;;;15.67;7.30;;;;;;;;;;5054572;28;20033;-60
2024/02/25 09:13:04;;;;;;;11.77;6.67;;;;;;;;;;5055051;28;20341;-58
2024/02/25 09:15:31;;;;;;;10.33;6.33;;;;;;;;;;5053817;28;20034;-58
2024/02/25 09:17:58;;;;;;;12.50;6.33;;;;;;;;;;5041130;28;20054;-59
2024/02/25 09:20:24;;;;;;;12.57;6.43;;;;;;;;;;5058672;28;20270;-58
2024/02/25 09:22:50;;;;;;;12.37;6.00;;;;;;;;;;5053634;28;20286;-59
2024/02/25 09:25:16;;;;;;;9.20;4.87;;;;;;;;;;5053061;28;20338;-60
2024/02/25 09:27:41;;;;;;;5.53;3.57;;;;;;;;;;5053273;28;20266;-56
2024/02/25 09:30:07;;;;;;;7.63;4.65;;;;;;;;;;5053163;28;20045;-59
2024/02/25 09:32:33;;;;;;;6.85;3.88;;;;;;;;;;5048721;28;20040;-59
2024/02/25 09:34:58;;;;;;;5.77;3.50;;;;;;;;;;5051189;28;20032;-59
2024/02/25 09:37:24;;;;;;;8.02;3.90;;;;;;;;;;5053887;28;20262;-58
2024/02/25 09:39:49;;;;;;;7.30;3.67;;;;;;;;;;5052019;28;20041;-60
2024/02/25 09:42:17;;;;;;;5.47;3.10;;;;;;;;;;5052904;28;20030;-59
2024/02/25 09:44:42;;;;;;;7.53;3.13;;;;;;;;;;5052908;28;20030;-59
2024/02/25 09:47:08;;;;;;;10.03;4.20;;;;;;;;;;5051950;28;20262;-59
2024/02/25 09:49:35;;;;;;;4.75;3.38;;;;;;;;;;5051004;28;20045;-60
2024/02/25 09:52:01;;;;;;;5.28;3.40;;;;;;;;;;5050393;28;20511;-60
2024/02/25 09:54:26;;;;;;;5.32;3.15;;;;;;;;;;5052049;28;20040;-60
2024/02/25 09:56:52;;;;;;;7.88;4.10;;;;;;;;;;5051915;28;20029;-57
2024/02/25 09:59:18;;;;;;;5.83;4.20;;;;;;;;;;5051492;28;20056;-60
2024/02/25 10:01:47;;;;;;;7.05;4.68;;;;;;;;;;5053213;28;20033;-60
2024/02/25 10:04:12;;;;;;;9.07;5.20;;;;;;;;;;5051809;28;20416;-58
2024/02/25 10:06:37;;;;;;;7.80;4.67;;;;;;;;;;5052760;28;20266;-60
2024/02/25 10:09:03;;;;;;;9.20;4.40;;;;;;;;;;5054755;28;20097;-56
2024/02/25 10:11:29;;;;;;;10.95;6.20;;;;;;;;;;5054184;28;20033;-60
2024/02/25 10:13:56;;;;;;;9.75;5.85;;;;;;;;;;5050817;28;20033;-58
2024/02/25 10:16:22;;;;;;;10.20;5.80;;;;;;;;;;5050654;28;20029;-58
2024/02/25 10:18:48;;;;;;;17.98;6.97;;;;;;;;;;5051457;28;20286;-58
2024/02/25 10:21:14;;;;;;;12.85;7.15;;;;;;;;;;5049648;28;20030;-58
2024/02/25 10:23:39;;;;;;;10.77;6.80;;;;;;;;;;5047894;28;20052;-58
2024/02/25 10:26:17;;;;;;;17.00;7.70;;;;;;;;;;5047720;28;20033;-59
2024/02/25 10:28:43;;;;;;;11.47;6.90;;;;;;;;;;5050183;28;20027;-57
2024/02/25 10:31:11;;;;;;;11.90;7.18;;;;;;;;;;5049706;28;20263;-59
2024/02/25 10:33:37;;;;;;;13.57;7.80;;;;;;;;;;5049613;28;20061;-60
2024/02/25 10:36:05;;;;;;;13.10;6.78;;;;;;;;;;5050605;28;20266;-57
2024/02/25 10:38:31;;;;;;;12.97;7.23;;;;;;;;;;5047698;28;20052;-58
2024/02/25 10:40:57;;;;;;;11.95;7.13;;;;;;;;;;5050558;28;20277;-59
2024/02/25 10:43:23;;;;;;;13.00;7.30;;;;;;;;;;5052724;28;20025;-58
2024/02/25 10:45:50;;;;;;;13.98;7.30;;;;;;;;;;5053522;28;20052;-58
2024/02/25 10:48:17;;;;;;;14.73;7.13;;;;;;;;;;5053283;28;20059;-55
2024/02/25 10:50:43;;;;;;;13.70;6.90;;;;;;;;;;5051085;28;20254;-56
2024/02/25 10:53:11;;;;;;;14.30;7.70;;;;;;;;;;5050807;28;20281;-58
2024/02/25 10:55:37;;;;;;;13.27;7.10;;;;;;;;;;5052883;28;20309;-60
2024/02/25 10:58:03;;;;;;;12.55;6.63;;;;;;;;;;5051270;28;20259;-59
2024/02/25 11:00:28;;;;;;;12.57;6.47;;;;;;;;;;5052573;28;20041;-62
2024/02/25 11:02:55;;;;;;;14.95;7.70;;;;;;;;;;5055866;28;20029;-60
2024/02/25 11:05:20;;;;;;;14.98;7.13;;;;;;;;;;5055045;28;20055;-59
2024/02/25 11:07:49;;;;;;;10.03;6.03;;;;;;;;;;5051433;28;20021;-61
2024/02/25 11:10:21;;;;;;;8.53;5.17;;;;;;;;;;5055980;28;20032;-59
2024/02/25 11:12:51;;;;;;;9.83;5.40;;;;;;;;;;5051542;28;20259;-60
2024/02/25 11:15:21;;;;;;;9.90;5.57;;;;;;;;;;5046608;28;20334;-59
2024/02/25 11:17:51;;;;;;;10.27;5.80;;;;;;;;;;5053291;28;20266;-58
2024/02/25 11:20:22;;;;;;;7.43;4.80;;;;;;;;;;5052616;28;20277;-58
2024/02/25 11:22:49;;;;;;;9.17;4.63;;;;;;;;;;5049240;28;20317;-57
2024/02/25 11:25:24;;;;;;;11.77;5.17;;;;;;;;;;5049347;28;20314;-61
2024/02/25 11:27:56;;;;;;;13.23;5.53;;;;;;;;;;5049357;28;20266;-59
2024/02/25 11:30:21;;;;;;;12.40;5.93;;;;;;;;;;5050855;28;20278;-59
2024/02/25 11:32:47;;;;;;;13.82;6.03;;;;;;;;;;5050330;28;20290;-59
2024/02/25 11:35:15;;;;;;;12.00;5.57;;;;;;;;;;5050698;28;20050;-61
2024/02/25 11:37:41;;;;;;;11.47;5.50;;;;;;;;;;5051094;28;20275;-60
2024/02/25 11:40:07;;;;;;;12.55;5.93;;;;;;;;;;5050910;28;20286;-57
2024/02/25 11:42:33;;;;;;;8.70;5.30;;;;;;;;;;5050471;28;20057;-59
2024/02/25 11:44:58;;;;;;;12.57;6.10;;;;;;;;;;5052778;28;20026;-60
2024/02/25 11:47:24;;;;;;;9.68;5.40;;;;;;;;;;5051517;28;20059;-57
2024/02/25 11:49:51;;;;;;;7.32;4.60;;;;;;;;;;5051753;28;20037;-60
2024/02/25 11:52:17;;;;;;;8.97;5.00;;;;;;;;;;5049853;28;20085;-59
2024/02/25 11:54:42;;;;;;;6.87;4.43;;;;;;;;;;5049320;28;20274;-58
2024/02/25 11:57:07;;;;;;;8.50;4.43;;;;;;;;;;5051328;28;20073;-57
2024/02/25 11:59:34;;;;;;;8.38;4.57;;;;;;;;;;5050536;28;20034;-59
2024/02/25 12:02:01;;;;;;;8.23;4.37;;;;;;;;;;5050401;28;20033;-59
2024/02/25 12:04:27;;;;;;;6.97;4.00;;;;;;;;;;5046024;28;20279;-59
2024/02/25 12:06:53;;;;;;;6.50;3.10;;;;;;;;;;5050512;28;20296;-59
2024/02/25 12:09:20;;;;;;;9.27;2.90;;;;;;;;;;5051185;28;20036;-60
2024/02/25 12:11:46;;;;;;;9.50;3.80;;;;;;;;;;5047605;28;20098;-59
2024/02/25 12:14:14;;;;;;;5.23;3.10;;;;;;;;;;5050688;28;20282;-59
2024/02/25 12:16:40;;;;;;;4.97;3.13;;;;;;;;;;5049680;28;20267;-59
2024/02/25 12:19:05;;;;;;;5.20;2.40;;;;;;;;;;5050738;28;20265;-60
2024/02/25 12:21:30;;;;;;;4.37;2.67;;;;;;;;;;5047502;28;20031;-58
2024/02/25 12:24:08;;;;;;;6.33;3.10;;;;;;;;;;5046906;28;20085;-60
2024/02/25 12:26:54;;;;;;;5.60;2.50;;;;;;;;;;5049699;28;20025;-61
2024/02/25 12:29:20;;;;;;;5.90;3.03;;;;;;;;;;5052351;28;20033;-60
2024/02/25 12:31:46;;;;;;;6.60;2.67;;;;;;;;;;5056247;28;20029;-58
2024/02/25 12:34:11;;;;;;;9.20;2.67;;;;;;;;;;5054697;28;20034;-60
2024/02/25 12:36:37;;;;;;;3.67;2.13;;;;;;;;;;5049052;28;20041;-59
2024/02/25 12:39:03;;;;;;;4.72;2.80;;;;;;;;;;5049890;28;20041;-60
2024/02/25 12:41:28;;;;;;;;;;;;;;;;;;5051703;28;21006;-59
2024/02/25 12:43:55;;;;;;;5.63;2.83;;;;;;;;;;5056297;28;19920;-61
2024/02/25 12:46:21;;;;;;;5.33;3.10;;;;;;;;;;5054065;28;20052;-60
2024/02/25 12:48:46;;;;;;;4.63;2.60;;;;;;;;;;5050953;28;20093;-58
2024/02/25 12:51:19;;;;;;;4.65;2.72;;;;;;;;;;5050697;28;20124;-60
2024/02/25 12:53:45;;;;;;;4.07;2.50;;;;;;;;;;5048823;28;20029;-58
2024/02/25 12:56:12;;;;;;;10.95;3.10;;;;;;;;;;5049780;28;20030;-60
2024/02/25 12:58:38;;;;;;;7.43;2.47;;;;;;;;;;5047817;28;20093;-55
2024/02/25 13:01:03;;;;;;;6.97;1.60;;;;;;;;;;5050305;28;20281;-60
2024/02/25 13:03:29;;;;;;;4.03;1.30;;;;;;;;;;5051060;28;20036;-61
2024/02/25 13:05:56;;;;;;;3.05;1.77;;;;;;;;;;5051579;28;20045;-60
2024/02/25 13:08:21;;;;;;;2.45;1.40;;;;;;;;;;5050750;28;20267;-60
2024/02/25 13:10:47;;;;;;;3.20;0.80;;;;;;;;;;5053012;28;20038;-60
2024/02/25 13:13:12;;;;;;;1.97;1.40;;;;;;;;;;5053653;28;20067;-62
2024/02/25 13:15:38;;;;;;;3.03;0.83;;;;;;;;;;5051064;28;20322;-60
2024/02/25 13:18:04;;;;;;;3.28;0.60;;;;;;;;;;5054444;28;20285;-59
2024/02/25 13:20:30;;;;;;;6.32;1.88;;;;;;;;;;5052209;28;20053;-60
2024/02/25 13:22:55;;;;;;;4.30;2.53;;;;;;;;;;5051563;28;20041;-59
2024/02/25 13:25:20;;;;;;;3.85;1.52;;;;;;;;;;5051335;28;20057;-60
2024/02/25 13:27:46;;;;;;;6.50;1.50;;;;;;;;;;5054029;28;20073;-59
2024/02/25 13:30:12;;;;;;;2.30;1.20;;;;;;;;;;5051749;28;20038;-60
2024/02/25 13:32:38;;;;;;;3.17;1.13;;;;;;;;;;5053800;28;20053;-59
2024/02/25 13:35:04;;;;;;;3.65;1.08;;;;;;;;;;5053421;28;20048;-60
2024/02/25 13:37:30;;;;;;;2.63;1.70;;;;;;;;;;5053932;28;20036;-58
2024/02/25 13:39:56;;;;;;;2.85;1.50;;;;;;;;;;5051131;28;20188;-60
2024/02/25 13:42:22;;;;;;;4.28;1.77;;;;;;;;;;5050640;28;20021;-61
2024/02/25 13:44:48;;;;;;;5.53;1.53;;;;;;;;;;5048508;28;20044;-59
2024/02/25 13:47:13;;;;;;;4.07;1.10;;;;;;;;;;5047734;28;20347;-58
2024/02/25 13:49:39;;;;;;;2.88;1.00;;;;;;;;;;5054140;28;20022;-62
2024/02/25 13:52:05;;;;;;;4.80;1.00;;;;;;;;;;5053675;28;20025;-60
2024/02/25 13:54:31;;;;;;;1.37;0.80;;;;;;;;;;5053960;28;20064;-60
2024/02/25 13:56:58;;;;;;;1.88;1.23;;;;;;;;;;5053206;28;20285;-59
2024/02/25 13:59:26;;;;;;;4.80;1.27;;;;;;;;;;5053868;28;20033;-61
2024/02/25 14:01:51;;;;;;;1.47;0.90;;;;;;;;;;5053186;28;20064;-60
2024/02/25 14:04:19;;;;;;;14.75;3.03;;;;;;;;;;5052365;28;20030;-58
2024/02/25 14:06:45;;;;;;;3.03;1.10;;;;;;;;;;5052959;28;20022;-60
2024/02/25 14:09:11;;;;;;;3.50;1.42;;;;;;;;;;5053762;28;20052;-61
2024/02/25 14:11:37;;;;;;;;;;;;;;;;;;5054814;28;20049;-60
2024/02/25 14:14:02;;;;;;;9.53;3.50;;;;;;;;;;5052872;28;19921;-62
2024/02/25 14:16:28;;;;;;;2.63;1.00;;;;;;;;;;5052548;28;20036;-58
2024/02/25 14:18:53;;;;;;;3.63;1.42;;;;;;;;;;5053094;28;20033;-59
2024/02/25 14:21:19;;;;;;;3.13;0.80;;;;;;;;;;5052194;28;20111;-60
2024/02/25 14:23:44;;;;;;;3.83;1.00;;;;;;;;;;5052404;28;20063;-62
2024/02/25 14:26:11;;;;;;;5.23;1.20;;;;;;;;;;5052554;28;20033;-60
2024/02/25 14:28:37;;;;;;;2.50;0.93;;;;;;;;;;5052692;28;20025;-59
2024/02/25 14:31:03;;;;;;;;;;;;;;;;;;5053755;28;20036;-59
2024/02/25 14:33:28;;;;;;;5.93;1.57;;;;;;;;;;5052435;28;20899;-61